<?xml version="1.0" encoding="UTF-8" standalone="no" ?>
<gpx xmlns="http://www.topografix.com/GPX/1/1" xmlns:xsi="http://www.w3.org/2001/XMLSchema-instance" xsi:schemaLocation="http://www.topografix.com/GPX/1/1 http://www.topografix.com/GPX/1/1/gpx.xsd" version="1.1" creator="VisuGPX - https://www.visugpx.com">
  <metadata>
    <name>samedi 13 décembre 2014</name>
    <desc><![CDATA[marchz_bas_serres]]></desc>
  </metadata>
  <trk>
    <name><![CDATA[ACTIVE LOG 001]]></name>
    <trkseg>
      <trkpt lat="44.23264" lon="0.68281">
        <ele>62.622924804688</ele>
        <time>2014-12-13T07:50:50Z</time>
      </trkpt>
      <trkpt lat="44.23265" lon="0.68281">
        <ele>62.622924804688</ele>
        <time>2014-12-13T07:52:14Z</time>
      </trkpt>
      <trkpt lat="44.23266" lon="0.68281">
        <ele>62.622924804688</ele>
        <time>2014-12-13T07:52:56Z</time>
      </trkpt>
      <trkpt lat="44.23266" lon="0.68281">
        <ele>62.142333984375</ele>
        <time>2014-12-13T07:54:12Z</time>
      </trkpt>
      <trkpt lat="44.23267" lon="0.68281">
        <ele>61.661743164062</ele>
        <time>2014-12-13T07:57:34Z</time>
      </trkpt>
      <trkpt lat="44.23263" lon="0.68264">
        <ele>61.181030273438</ele>
        <time>2014-12-13T07:59:27Z</time>
      </trkpt>
      <trkpt lat="44.23263" lon="0.68263">
        <ele>61.181030273438</ele>
        <time>2014-12-13T07:59:28Z</time>
      </trkpt>
      <trkpt lat="44.23262" lon="0.68255">
        <ele>61.661743164062</ele>
        <time>2014-12-13T07:59:33Z</time>
      </trkpt>
      <trkpt lat="44.23257" lon="0.68235">
        <ele>62.622924804688</ele>
        <time>2014-12-13T07:59:53Z</time>
      </trkpt>
      <trkpt lat="44.23253" lon="0.68212">
        <ele>63.103637695312</ele>
        <time>2014-12-13T08:00:11Z</time>
      </trkpt>
      <trkpt lat="44.23253" lon="0.68205">
        <ele>63.103637695312</ele>
        <time>2014-12-13T08:00:16Z</time>
      </trkpt>
      <trkpt lat="44.23248" lon="0.68194">
        <ele>62.622924804688</ele>
        <time>2014-12-13T08:00:24Z</time>
      </trkpt>
      <trkpt lat="44.23243" lon="0.6819">
        <ele>63.584350585938</ele>
        <time>2014-12-13T08:00:29Z</time>
      </trkpt>
      <trkpt lat="44.23222" lon="0.68179">
        <ele>64.545654296875</ele>
        <time>2014-12-13T08:00:49Z</time>
      </trkpt>
      <trkpt lat="44.23212" lon="0.68165">
        <ele>65.987670898438</ele>
        <time>2014-12-13T08:01:03Z</time>
      </trkpt>
      <trkpt lat="44.2321" lon="0.68164">
        <ele>65.987670898438</ele>
        <time>2014-12-13T08:01:05Z</time>
      </trkpt>
      <trkpt lat="44.23205" lon="0.68148">
        <ele>65.507080078125</ele>
        <time>2014-12-13T08:01:18Z</time>
      </trkpt>
      <trkpt lat="44.23214" lon="0.68142">
        <ele>65.0263671875</ele>
        <time>2014-12-13T08:01:28Z</time>
      </trkpt>
      <trkpt lat="44.2323" lon="0.68125">
        <ele>64.065063476562</ele>
        <time>2014-12-13T08:01:46Z</time>
      </trkpt>
      <trkpt lat="44.23235" lon="0.68114">
        <ele>64.545654296875</ele>
        <time>2014-12-13T08:01:54Z</time>
      </trkpt>
      <trkpt lat="44.23244" lon="0.68103">
        <ele>62.622924804688</ele>
        <time>2014-12-13T08:02:05Z</time>
      </trkpt>
      <trkpt lat="44.23258" lon="0.68095">
        <ele>61.181030273438</ele>
        <time>2014-12-13T08:02:20Z</time>
      </trkpt>
      <trkpt lat="44.23271" lon="0.68087">
        <ele>59.739135742188</ele>
        <time>2014-12-13T08:02:33Z</time>
      </trkpt>
      <trkpt lat="44.23275" lon="0.68059">
        <ele>63.584350585938</ele>
        <time>2014-12-13T08:02:49Z</time>
      </trkpt>
      <trkpt lat="44.23272" lon="0.68049">
        <ele>64.545654296875</ele>
        <time>2014-12-13T08:02:55Z</time>
      </trkpt>
      <trkpt lat="44.23271" lon="0.68037">
        <ele>66.46826171875</ele>
        <time>2014-12-13T08:03:03Z</time>
      </trkpt>
      <trkpt lat="44.2327" lon="0.68031">
        <ele>67.4296875</ele>
        <time>2014-12-13T08:03:08Z</time>
      </trkpt>
      <trkpt lat="44.23279" lon="0.68021">
        <ele>65.987670898438</ele>
        <time>2014-12-13T08:03:22Z</time>
      </trkpt>
      <trkpt lat="44.23279" lon="0.68019">
        <ele>65.507080078125</ele>
        <time>2014-12-13T08:03:23Z</time>
      </trkpt>
      <trkpt lat="44.23279" lon="0.68017">
        <ele>65.0263671875</ele>
        <time>2014-12-13T08:03:25Z</time>
      </trkpt>
      <trkpt lat="44.23277" lon="0.68013">
        <ele>65.507080078125</ele>
        <time>2014-12-13T08:03:28Z</time>
      </trkpt>
      <trkpt lat="44.23277" lon="0.68006">
        <ele>65.0263671875</ele>
        <time>2014-12-13T08:03:32Z</time>
      </trkpt>
      <trkpt lat="44.23279" lon="0.67999">
        <ele>64.545654296875</ele>
        <time>2014-12-13T08:03:36Z</time>
      </trkpt>
      <trkpt lat="44.23292" lon="0.67989">
        <ele>63.584350585938</ele>
        <time>2014-12-13T08:03:50Z</time>
      </trkpt>
      <trkpt lat="44.23304" lon="0.67985">
        <ele>64.545654296875</ele>
        <time>2014-12-13T08:04:01Z</time>
      </trkpt>
      <trkpt lat="44.23319" lon="0.67976">
        <ele>60.700317382812</ele>
        <time>2014-12-13T08:04:15Z</time>
      </trkpt>
      <trkpt lat="44.23325" lon="0.67973">
        <ele>60.2197265625</ele>
        <time>2014-12-13T08:04:21Z</time>
      </trkpt>
      <trkpt lat="44.23329" lon="0.67972">
        <ele>59.739135742188</ele>
        <time>2014-12-13T08:04:25Z</time>
      </trkpt>
      <trkpt lat="44.23338" lon="0.67973">
        <ele>60.700317382812</ele>
        <time>2014-12-13T08:04:34Z</time>
      </trkpt>
      <trkpt lat="44.23354" lon="0.67974">
        <ele>61.661743164062</ele>
        <time>2014-12-13T08:04:49Z</time>
      </trkpt>
      <trkpt lat="44.23367" lon="0.67974">
        <ele>59.739135742188</ele>
        <time>2014-12-13T08:05:01Z</time>
      </trkpt>
      <trkpt lat="44.23376" lon="0.67972">
        <ele>63.584350585938</ele>
        <time>2014-12-13T08:05:07Z</time>
      </trkpt>
      <trkpt lat="44.2338" lon="0.67976">
        <ele>61.661743164062</ele>
        <time>2014-12-13T08:05:12Z</time>
      </trkpt>
      <trkpt lat="44.23395" lon="0.67992">
        <ele>60.700317382812</ele>
        <time>2014-12-13T08:05:28Z</time>
      </trkpt>
      <trkpt lat="44.23397" lon="0.67996">
        <ele>60.2197265625</ele>
        <time>2014-12-13T08:05:31Z</time>
      </trkpt>
      <trkpt lat="44.23407" lon="0.68005">
        <ele>60.2197265625</ele>
        <time>2014-12-13T08:05:46Z</time>
      </trkpt>
      <trkpt lat="44.23408" lon="0.68006">
        <ele>60.2197265625</ele>
        <time>2014-12-13T08:05:47Z</time>
      </trkpt>
      <trkpt lat="44.23414" lon="0.68011">
        <ele>60.2197265625</ele>
        <time>2014-12-13T08:05:54Z</time>
      </trkpt>
      <trkpt lat="44.23418" lon="0.68014">
        <ele>59.739135742188</ele>
        <time>2014-12-13T08:05:58Z</time>
      </trkpt>
      <trkpt lat="44.23437" lon="0.68037">
        <ele>60.2197265625</ele>
        <time>2014-12-13T08:06:22Z</time>
      </trkpt>
      <trkpt lat="44.23439" lon="0.68044">
        <ele>60.700317382812</ele>
        <time>2014-12-13T08:06:27Z</time>
      </trkpt>
      <trkpt lat="44.23444" lon="0.68057">
        <ele>60.2197265625</ele>
        <time>2014-12-13T08:06:37Z</time>
      </trkpt>
      <trkpt lat="44.23449" lon="0.68069">
        <ele>60.2197265625</ele>
        <time>2014-12-13T08:06:47Z</time>
      </trkpt>
      <trkpt lat="44.23457" lon="0.68079">
        <ele>60.700317382812</ele>
        <time>2014-12-13T08:06:59Z</time>
      </trkpt>
      <trkpt lat="44.23457" lon="0.68082">
        <ele>61.181030273438</ele>
        <time>2014-12-13T08:07:01Z</time>
      </trkpt>
      <trkpt lat="44.23461" lon="0.68084">
        <ele>61.661743164062</ele>
        <time>2014-12-13T08:07:04Z</time>
      </trkpt>
      <trkpt lat="44.2347" lon="0.68097">
        <ele>63.103637695312</ele>
        <time>2014-12-13T08:07:16Z</time>
      </trkpt>
      <trkpt lat="44.23474" lon="0.68108">
        <ele>65.507080078125</ele>
        <time>2014-12-13T08:07:25Z</time>
      </trkpt>
      <trkpt lat="44.23481" lon="0.68122">
        <ele>66.46826171875</ele>
        <time>2014-12-13T08:07:37Z</time>
      </trkpt>
      <trkpt lat="44.23489" lon="0.68139">
        <ele>69.352294921875</ele>
        <time>2014-12-13T08:07:53Z</time>
      </trkpt>
      <trkpt lat="44.23496" lon="0.68147">
        <ele>70.3134765625</ele>
        <time>2014-12-13T08:08:03Z</time>
      </trkpt>
      <trkpt lat="44.23498" lon="0.68151">
        <ele>71.27490234375</ele>
        <time>2014-12-13T08:08:06Z</time>
      </trkpt>
      <trkpt lat="44.23504" lon="0.68153">
        <ele>71.27490234375</ele>
        <time>2014-12-13T08:08:13Z</time>
      </trkpt>
      <trkpt lat="44.23515" lon="0.68155">
        <ele>73.197631835938</ele>
        <time>2014-12-13T08:08:25Z</time>
      </trkpt>
      <trkpt lat="44.23534" lon="0.68179">
        <ele>76.081420898438</ele>
        <time>2014-12-13T08:08:51Z</time>
      </trkpt>
      <trkpt lat="44.23535" lon="0.68181">
        <ele>76.081420898438</ele>
        <time>2014-12-13T08:08:53Z</time>
      </trkpt>
      <trkpt lat="44.23538" lon="0.68184">
        <ele>76.081420898438</ele>
        <time>2014-12-13T08:08:57Z</time>
      </trkpt>
      <trkpt lat="44.2354" lon="0.68186">
        <ele>76.081420898438</ele>
        <time>2014-12-13T08:08:59Z</time>
      </trkpt>
      <trkpt lat="44.2355" lon="0.68211">
        <ele>76.081420898438</ele>
        <time>2014-12-13T08:09:17Z</time>
      </trkpt>
      <trkpt lat="44.23552" lon="0.68214">
        <ele>77.042846679688</ele>
        <time>2014-12-13T08:09:20Z</time>
      </trkpt>
      <trkpt lat="44.23559" lon="0.68219">
        <ele>78.484741210938</ele>
        <time>2014-12-13T08:09:31Z</time>
      </trkpt>
      <trkpt lat="44.2357" lon="0.68232">
        <ele>79.446044921875</ele>
        <time>2014-12-13T08:09:49Z</time>
      </trkpt>
      <trkpt lat="44.23576" lon="0.68237">
        <ele>78.965454101562</ele>
        <time>2014-12-13T08:09:58Z</time>
      </trkpt>
      <trkpt lat="44.23603" lon="0.68219">
        <ele>78.004028320312</ele>
        <time>2014-12-13T08:10:22Z</time>
      </trkpt>
      <trkpt lat="44.23623" lon="0.68207">
        <ele>77.5234375</ele>
        <time>2014-12-13T08:10:41Z</time>
      </trkpt>
      <trkpt lat="44.23642" lon="0.68188">
        <ele>81.368774414062</ele>
        <time>2014-12-13T08:11:00Z</time>
      </trkpt>
      <trkpt lat="44.23652" lon="0.68174">
        <ele>83.291381835938</ele>
        <time>2014-12-13T08:11:15Z</time>
      </trkpt>
      <trkpt lat="44.23664" lon="0.68168">
        <ele>83.291381835938</ele>
        <time>2014-12-13T08:11:32Z</time>
      </trkpt>
      <trkpt lat="44.23677" lon="0.68166">
        <ele>85.694580078125</ele>
        <time>2014-12-13T08:11:48Z</time>
      </trkpt>
      <trkpt lat="44.23689" lon="0.68171">
        <ele>86.656005859375</ele>
        <time>2014-12-13T08:12:07Z</time>
      </trkpt>
      <trkpt lat="44.23701" lon="0.68174">
        <ele>85.213989257812</ele>
        <time>2014-12-13T08:12:26Z</time>
      </trkpt>
      <trkpt lat="44.2371" lon="0.68181">
        <ele>88.098022460938</ele>
        <time>2014-12-13T08:12:39Z</time>
      </trkpt>
      <trkpt lat="44.23713" lon="0.68185">
        <ele>88.098022460938</ele>
        <time>2014-12-13T08:12:44Z</time>
      </trkpt>
      <trkpt lat="44.23716" lon="0.68192">
        <ele>88.578735351562</ele>
        <time>2014-12-13T08:12:50Z</time>
      </trkpt>
      <trkpt lat="44.23718" lon="0.68198">
        <ele>90.501342773438</ele>
        <time>2014-12-13T08:12:56Z</time>
      </trkpt>
      <trkpt lat="44.23725" lon="0.6823">
        <ele>95.788452148438</ele>
        <time>2014-12-13T08:13:25Z</time>
      </trkpt>
      <trkpt lat="44.23729" lon="0.68258">
        <ele>99.153076171875</ele>
        <time>2014-12-13T08:13:49Z</time>
      </trkpt>
      <trkpt lat="44.23733" lon="0.68285">
        <ele>103.47900390625</ele>
        <time>2014-12-13T08:14:12Z</time>
      </trkpt>
      <trkpt lat="44.23739" lon="0.6831">
        <ele>106.36303710938</ele>
        <time>2014-12-13T08:14:34Z</time>
      </trkpt>
      <trkpt lat="44.23744" lon="0.68316">
        <ele>105.88244628906</ele>
        <time>2014-12-13T08:14:41Z</time>
      </trkpt>
      <trkpt lat="44.23757" lon="0.6833">
        <ele>105.88244628906</ele>
        <time>2014-12-13T08:15:01Z</time>
      </trkpt>
      <trkpt lat="44.23767" lon="0.68335">
        <ele>107.32434082031</ele>
        <time>2014-12-13T08:15:16Z</time>
      </trkpt>
      <trkpt lat="44.23773" lon="0.68349">
        <ele>109.24694824219</ele>
        <time>2014-12-13T08:15:31Z</time>
      </trkpt>
      <trkpt lat="44.23774" lon="0.68349">
        <ele>109.72766113281</ele>
        <time>2014-12-13T08:15:32Z</time>
      </trkpt>
      <trkpt lat="44.23781" lon="0.68357">
        <ele>110.68884277344</ele>
        <time>2014-12-13T08:15:43Z</time>
      </trkpt>
      <trkpt lat="44.23796" lon="0.68364">
        <ele>111.65026855469</ele>
        <time>2014-12-13T08:16:01Z</time>
      </trkpt>
      <trkpt lat="44.23808" lon="0.68362">
        <ele>115.49560546875</ele>
        <time>2014-12-13T08:16:15Z</time>
      </trkpt>
      <trkpt lat="44.23811" lon="0.68362">
        <ele>115.49560546875</ele>
        <time>2014-12-13T08:16:18Z</time>
      </trkpt>
      <trkpt lat="44.23818" lon="0.68358">
        <ele>123.66674804688</ele>
        <time>2014-12-13T08:16:30Z</time>
      </trkpt>
      <trkpt lat="44.23823" lon="0.68356">
        <ele>125.10876464844</ele>
        <time>2014-12-13T08:16:35Z</time>
      </trkpt>
      <trkpt lat="44.23839" lon="0.68358">
        <ele>126.06994628906</ele>
        <time>2014-12-13T08:16:54Z</time>
      </trkpt>
      <trkpt lat="44.2385" lon="0.68368">
        <ele>123.66674804688</ele>
        <time>2014-12-13T08:17:14Z</time>
      </trkpt>
      <trkpt lat="44.23854" lon="0.68378">
        <ele>125.58935546875</ele>
        <time>2014-12-13T08:17:29Z</time>
      </trkpt>
      <trkpt lat="44.23854" lon="0.68388">
        <ele>127.99255371094</ele>
        <time>2014-12-13T08:17:44Z</time>
      </trkpt>
      <trkpt lat="44.23855" lon="0.68399">
        <ele>131.35729980469</ele>
        <time>2014-12-13T08:18:00Z</time>
      </trkpt>
      <trkpt lat="44.23856" lon="0.68402">
        <ele>133.27990722656</ele>
        <time>2014-12-13T08:18:09Z</time>
      </trkpt>
      <trkpt lat="44.23858" lon="0.68412">
        <ele>135.68310546875</ele>
        <time>2014-12-13T08:18:25Z</time>
      </trkpt>
      <trkpt lat="44.2386" lon="0.6842">
        <ele>134.72192382812</ele>
        <time>2014-12-13T08:18:36Z</time>
      </trkpt>
      <trkpt lat="44.23864" lon="0.68435">
        <ele>136.64465332031</ele>
        <time>2014-12-13T08:18:59Z</time>
      </trkpt>
      <trkpt lat="44.23869" lon="0.68443">
        <ele>137.60583496094</ele>
        <time>2014-12-13T08:19:16Z</time>
      </trkpt>
      <trkpt lat="44.23882" lon="0.68455">
        <ele>140.00915527344</ele>
        <time>2014-12-13T08:19:37Z</time>
      </trkpt>
      <trkpt lat="44.23888" lon="0.68459">
        <ele>140.48986816406</ele>
        <time>2014-12-13T08:19:51Z</time>
      </trkpt>
      <trkpt lat="44.23893" lon="0.68464">
        <ele>140.00915527344</ele>
        <time>2014-12-13T08:20:25Z</time>
      </trkpt>
      <trkpt lat="44.23906" lon="0.68475">
        <ele>139.0478515625</ele>
        <time>2014-12-13T08:20:42Z</time>
      </trkpt>
      <trkpt lat="44.23914" lon="0.68485">
        <ele>140.00915527344</ele>
        <time>2014-12-13T08:20:55Z</time>
      </trkpt>
      <trkpt lat="44.23922" lon="0.68492">
        <ele>139.0478515625</ele>
        <time>2014-12-13T08:21:07Z</time>
      </trkpt>
      <trkpt lat="44.2393" lon="0.68508">
        <ele>140.97045898438</ele>
        <time>2014-12-13T08:21:22Z</time>
      </trkpt>
      <trkpt lat="44.23931" lon="0.68516">
        <ele>140.97045898438</ele>
        <time>2014-12-13T08:21:29Z</time>
      </trkpt>
      <trkpt lat="44.23934" lon="0.68544">
        <ele>139.52844238281</ele>
        <time>2014-12-13T08:21:50Z</time>
      </trkpt>
      <trkpt lat="44.23936" lon="0.68549">
        <ele>139.0478515625</ele>
        <time>2014-12-13T08:21:54Z</time>
      </trkpt>
      <trkpt lat="44.23942" lon="0.68564">
        <ele>141.45104980469</ele>
        <time>2014-12-13T08:22:06Z</time>
      </trkpt>
      <trkpt lat="44.23953" lon="0.68584">
        <ele>140.00915527344</ele>
        <time>2014-12-13T08:22:25Z</time>
      </trkpt>
      <trkpt lat="44.23963" lon="0.68595">
        <ele>139.52844238281</ele>
        <time>2014-12-13T08:22:40Z</time>
      </trkpt>
      <trkpt lat="44.23968" lon="0.68604">
        <ele>140.48986816406</ele>
        <time>2014-12-13T08:22:47Z</time>
      </trkpt>
      <trkpt lat="44.23976" lon="0.68616">
        <ele>140.97045898438</ele>
        <time>2014-12-13T08:23:00Z</time>
      </trkpt>
      <trkpt lat="44.23985" lon="0.68633">
        <ele>143.85437011719</ele>
        <time>2014-12-13T08:23:14Z</time>
      </trkpt>
      <trkpt lat="44.23993" lon="0.68654">
        <ele>143.85437011719</ele>
        <time>2014-12-13T08:23:32Z</time>
      </trkpt>
      <trkpt lat="44.23999" lon="0.68671">
        <ele>141.93176269531</ele>
        <time>2014-12-13T08:23:46Z</time>
      </trkpt>
      <trkpt lat="44.2401" lon="0.68698">
        <ele>142.41247558594</ele>
        <time>2014-12-13T08:24:06Z</time>
      </trkpt>
      <trkpt lat="44.24018" lon="0.6872">
        <ele>142.41247558594</ele>
        <time>2014-12-13T08:24:23Z</time>
      </trkpt>
      <trkpt lat="44.24025" lon="0.68736">
        <ele>143.37365722656</ele>
        <time>2014-12-13T08:24:37Z</time>
      </trkpt>
      <trkpt lat="44.24028" lon="0.68739">
        <ele>145.29638671875</ele>
        <time>2014-12-13T08:24:41Z</time>
      </trkpt>
      <trkpt lat="44.24039" lon="0.6876">
        <ele>143.37365722656</ele>
        <time>2014-12-13T08:24:59Z</time>
      </trkpt>
      <trkpt lat="44.24042" lon="0.68766">
        <ele>144.81579589844</ele>
        <time>2014-12-13T08:25:04Z</time>
      </trkpt>
      <trkpt lat="44.24044" lon="0.6877">
        <ele>144.33520507812</ele>
        <time>2014-12-13T08:25:07Z</time>
      </trkpt>
      <trkpt lat="44.2405" lon="0.68778">
        <ele>145.29638671875</ele>
        <time>2014-12-13T08:25:14Z</time>
      </trkpt>
      <trkpt lat="44.24052" lon="0.6878">
        <ele>145.77709960938</ele>
        <time>2014-12-13T08:25:17Z</time>
      </trkpt>
      <trkpt lat="44.24055" lon="0.68787">
        <ele>145.29638671875</ele>
        <time>2014-12-13T08:25:22Z</time>
      </trkpt>
      <trkpt lat="44.24066" lon="0.68797">
        <ele>146.73840332031</ele>
        <time>2014-12-13T08:25:35Z</time>
      </trkpt>
      <trkpt lat="44.24083" lon="0.68822">
        <ele>150.58361816406</ele>
        <time>2014-12-13T08:26:00Z</time>
      </trkpt>
      <trkpt lat="44.24105" lon="0.68842">
        <ele>153.46765136719</ele>
        <time>2014-12-13T08:26:26Z</time>
      </trkpt>
      <trkpt lat="44.24115" lon="0.68851">
        <ele>154.42895507812</ele>
        <time>2014-12-13T08:26:40Z</time>
      </trkpt>
      <trkpt lat="44.24136" lon="0.6887">
        <ele>155.87097167969</ele>
        <time>2014-12-13T08:27:05Z</time>
      </trkpt>
      <trkpt lat="44.24147" lon="0.6888">
        <ele>157.31286621094</ele>
        <time>2014-12-13T08:27:18Z</time>
      </trkpt>
      <trkpt lat="44.24159" lon="0.68889">
        <ele>159.23547363281</ele>
        <time>2014-12-13T08:27:32Z</time>
      </trkpt>
      <trkpt lat="44.24171" lon="0.68901">
        <ele>160.19689941406</ele>
        <time>2014-12-13T08:27:45Z</time>
      </trkpt>
      <trkpt lat="44.24178" lon="0.68907">
        <ele>159.23547363281</ele>
        <time>2014-12-13T08:27:52Z</time>
      </trkpt>
      <trkpt lat="44.24189" lon="0.68915">
        <ele>159.23547363281</ele>
        <time>2014-12-13T08:28:04Z</time>
      </trkpt>
      <trkpt lat="44.24206" lon="0.68926">
        <ele>160.19689941406</ele>
        <time>2014-12-13T08:28:21Z</time>
      </trkpt>
      <trkpt lat="44.24211" lon="0.68925">
        <ele>160.67749023438</ele>
        <time>2014-12-13T08:28:25Z</time>
      </trkpt>
      <trkpt lat="44.24214" lon="0.68928">
        <ele>160.19689941406</ele>
        <time>2014-12-13T08:28:28Z</time>
      </trkpt>
      <trkpt lat="44.24216" lon="0.68931">
        <ele>159.71618652344</ele>
        <time>2014-12-13T08:28:31Z</time>
      </trkpt>
      <trkpt lat="44.24238" lon="0.68942">
        <ele>160.19689941406</ele>
        <time>2014-12-13T08:28:52Z</time>
      </trkpt>
      <trkpt lat="44.24257" lon="0.68953">
        <ele>158.27416992188</ele>
        <time>2014-12-13T08:29:10Z</time>
      </trkpt>
      <trkpt lat="44.24275" lon="0.68972">
        <ele>154.90954589844</ele>
        <time>2014-12-13T08:29:31Z</time>
      </trkpt>
      <trkpt lat="44.24291" lon="0.68989">
        <ele>152.50634765625</ele>
        <time>2014-12-13T08:29:49Z</time>
      </trkpt>
      <trkpt lat="44.24296" lon="0.68996">
        <ele>151.544921875</ele>
        <time>2014-12-13T08:29:56Z</time>
      </trkpt>
      <trkpt lat="44.24298" lon="0.68998">
        <ele>151.06420898438</ele>
        <time>2014-12-13T08:29:58Z</time>
      </trkpt>
      <trkpt lat="44.24317" lon="0.69014">
        <ele>150.10302734375</ele>
        <time>2014-12-13T08:30:18Z</time>
      </trkpt>
      <trkpt lat="44.24337" lon="0.69032">
        <ele>149.62231445312</ele>
        <time>2014-12-13T08:30:39Z</time>
      </trkpt>
      <trkpt lat="44.24365" lon="0.69056">
        <ele>149.1416015625</ele>
        <time>2014-12-13T08:31:09Z</time>
      </trkpt>
      <trkpt lat="44.24394" lon="0.69081">
        <ele>149.1416015625</ele>
        <time>2014-12-13T08:31:41Z</time>
      </trkpt>
      <trkpt lat="44.24402" lon="0.69091">
        <ele>149.1416015625</ele>
        <time>2014-12-13T08:32:06Z</time>
      </trkpt>
      <trkpt lat="44.24404" lon="0.691">
        <ele>149.1416015625</ele>
        <time>2014-12-13T08:34:14Z</time>
      </trkpt>
      <trkpt lat="44.24395" lon="0.69129">
        <ele>151.06420898438</ele>
        <time>2014-12-13T08:34:37Z</time>
      </trkpt>
      <trkpt lat="44.24375" lon="0.6916">
        <ele>152.50634765625</ele>
        <time>2014-12-13T08:35:05Z</time>
      </trkpt>
      <trkpt lat="44.24361" lon="0.69181">
        <ele>152.98693847656</ele>
        <time>2014-12-13T08:35:24Z</time>
      </trkpt>
      <trkpt lat="44.2434" lon="0.69217">
        <ele>152.98693847656</ele>
        <time>2014-12-13T08:35:55Z</time>
      </trkpt>
      <trkpt lat="44.24324" lon="0.69245">
        <ele>151.06420898438</ele>
        <time>2014-12-13T08:36:19Z</time>
      </trkpt>
      <trkpt lat="44.2431" lon="0.69263">
        <ele>150.58361816406</ele>
        <time>2014-12-13T08:36:38Z</time>
      </trkpt>
      <trkpt lat="44.24297" lon="0.69289">
        <ele>148.18041992188</ele>
        <time>2014-12-13T08:37:07Z</time>
      </trkpt>
      <trkpt lat="44.24283" lon="0.6929">
        <ele>146.2578125</ele>
        <time>2014-12-13T08:37:27Z</time>
      </trkpt>
      <trkpt lat="44.2426" lon="0.69305">
        <ele>146.2578125</ele>
        <time>2014-12-13T08:37:56Z</time>
      </trkpt>
      <trkpt lat="44.24244" lon="0.69317">
        <ele>142.89306640625</ele>
        <time>2014-12-13T08:38:19Z</time>
      </trkpt>
      <trkpt lat="44.2424" lon="0.69319">
        <ele>142.89306640625</ele>
        <time>2014-12-13T08:38:24Z</time>
      </trkpt>
      <trkpt lat="44.2423" lon="0.69328">
        <ele>138.56726074219</ele>
        <time>2014-12-13T08:38:44Z</time>
      </trkpt>
      <trkpt lat="44.24217" lon="0.69346">
        <ele>136.16394042969</ele>
        <time>2014-12-13T08:39:08Z</time>
      </trkpt>
      <trkpt lat="44.24214" lon="0.69352">
        <ele>134.72192382812</ele>
        <time>2014-12-13T08:39:15Z</time>
      </trkpt>
      <trkpt lat="44.24207" lon="0.69364">
        <ele>134.72192382812</ele>
        <time>2014-12-13T08:39:31Z</time>
      </trkpt>
      <trkpt lat="44.24196" lon="0.69379">
        <ele>132.31860351562</ele>
        <time>2014-12-13T08:39:50Z</time>
      </trkpt>
      <trkpt lat="44.24184" lon="0.69392">
        <ele>126.55065917969</ele>
        <time>2014-12-13T08:40:09Z</time>
      </trkpt>
      <trkpt lat="44.24177" lon="0.69414">
        <ele>122.22473144531</ele>
        <time>2014-12-13T08:40:32Z</time>
      </trkpt>
      <trkpt lat="44.24176" lon="0.69435">
        <ele>119.82141113281</ele>
        <time>2014-12-13T08:40:51Z</time>
      </trkpt>
      <trkpt lat="44.24178" lon="0.6945">
        <ele>116.9375</ele>
        <time>2014-12-13T08:41:05Z</time>
      </trkpt>
      <trkpt lat="44.2418" lon="0.69471">
        <ele>115.01489257812</ele>
        <time>2014-12-13T08:41:26Z</time>
      </trkpt>
      <trkpt lat="44.24178" lon="0.69484">
        <ele>112.61157226562</ele>
        <time>2014-12-13T08:41:42Z</time>
      </trkpt>
      <trkpt lat="44.24169" lon="0.6949">
        <ele>112.61157226562</ele>
        <time>2014-12-13T08:41:56Z</time>
      </trkpt>
      <trkpt lat="44.24156" lon="0.69494">
        <ele>112.13098144531</ele>
        <time>2014-12-13T08:42:12Z</time>
      </trkpt>
      <trkpt lat="44.24145" lon="0.69496">
        <ele>114.5341796875</ele>
        <time>2014-12-13T08:42:27Z</time>
      </trkpt>
      <trkpt lat="44.24131" lon="0.695">
        <ele>115.01489257812</ele>
        <time>2014-12-13T08:42:45Z</time>
      </trkpt>
      <trkpt lat="44.24114" lon="0.69502">
        <ele>113.09228515625</ele>
        <time>2014-12-13T08:43:02Z</time>
      </trkpt>
      <trkpt lat="44.24106" lon="0.69514">
        <ele>112.13098144531</ele>
        <time>2014-12-13T08:43:18Z</time>
      </trkpt>
      <trkpt lat="44.24113" lon="0.69536">
        <ele>105.40173339844</ele>
        <time>2014-12-13T08:43:36Z</time>
      </trkpt>
      <trkpt lat="44.2412" lon="0.69547">
        <ele>99.6337890625</ele>
        <time>2014-12-13T08:43:49Z</time>
      </trkpt>
      <trkpt lat="44.2413" lon="0.69562">
        <ele>96.269287109375</ele>
        <time>2014-12-13T08:44:07Z</time>
      </trkpt>
      <trkpt lat="44.24136" lon="0.6957">
        <ele>96.269287109375</ele>
        <time>2014-12-13T08:44:15Z</time>
      </trkpt>
      <trkpt lat="44.24154" lon="0.69598">
        <ele>93.385131835938</ele>
        <time>2014-12-13T08:44:45Z</time>
      </trkpt>
      <trkpt lat="44.24162" lon="0.69608">
        <ele>93.385131835938</ele>
        <time>2014-12-13T08:45:02Z</time>
      </trkpt>
      <trkpt lat="44.2417" lon="0.69631">
        <ele>93.865844726562</ele>
        <time>2014-12-13T08:45:21Z</time>
      </trkpt>
      <trkpt lat="44.24163" lon="0.69642">
        <ele>93.385131835938</ele>
        <time>2014-12-13T08:45:34Z</time>
      </trkpt>
      <trkpt lat="44.24152" lon="0.6965">
        <ele>90.98193359375</ele>
        <time>2014-12-13T08:45:45Z</time>
      </trkpt>
      <trkpt lat="44.24147" lon="0.69655">
        <ele>91.462524414062</ele>
        <time>2014-12-13T08:45:49Z</time>
      </trkpt>
      <trkpt lat="44.24142" lon="0.6966">
        <ele>91.943237304688</ele>
        <time>2014-12-13T08:45:54Z</time>
      </trkpt>
      <trkpt lat="44.2414" lon="0.69666">
        <ele>90.98193359375</ele>
        <time>2014-12-13T08:45:58Z</time>
      </trkpt>
      <trkpt lat="44.24131" lon="0.69675">
        <ele>91.943237304688</ele>
        <time>2014-12-13T08:46:08Z</time>
      </trkpt>
      <trkpt lat="44.2413" lon="0.69677">
        <ele>92.423950195312</ele>
        <time>2014-12-13T08:46:10Z</time>
      </trkpt>
      <trkpt lat="44.24128" lon="0.69681">
        <ele>92.904541015625</ele>
        <time>2014-12-13T08:46:14Z</time>
      </trkpt>
      <trkpt lat="44.24117" lon="0.697">
        <ele>92.904541015625</ele>
        <time>2014-12-13T08:46:29Z</time>
      </trkpt>
      <trkpt lat="44.24113" lon="0.69708">
        <ele>92.904541015625</ele>
        <time>2014-12-13T08:46:35Z</time>
      </trkpt>
      <trkpt lat="44.24102" lon="0.69735">
        <ele>92.904541015625</ele>
        <time>2014-12-13T08:46:54Z</time>
      </trkpt>
      <trkpt lat="44.2409" lon="0.69768">
        <ele>93.385131835938</ele>
        <time>2014-12-13T08:47:17Z</time>
      </trkpt>
      <trkpt lat="44.24087" lon="0.69773">
        <ele>94.346557617188</ele>
        <time>2014-12-13T08:47:22Z</time>
      </trkpt>
      <trkpt lat="44.24084" lon="0.69779">
        <ele>94.8271484375</ele>
        <time>2014-12-13T08:47:27Z</time>
      </trkpt>
      <trkpt lat="44.24083" lon="0.69782">
        <ele>96.269287109375</ele>
        <time>2014-12-13T08:47:30Z</time>
      </trkpt>
      <trkpt lat="44.24081" lon="0.69786">
        <ele>96.749877929688</ele>
        <time>2014-12-13T08:47:33Z</time>
      </trkpt>
      <trkpt lat="44.24065" lon="0.69802">
        <ele>98.672485351562</ele>
        <time>2014-12-13T08:47:53Z</time>
      </trkpt>
      <trkpt lat="44.24055" lon="0.69822">
        <ele>97.711181640625</ele>
        <time>2014-12-13T08:48:14Z</time>
      </trkpt>
      <trkpt lat="44.24045" lon="0.69836">
        <ele>97.23046875</ele>
        <time>2014-12-13T08:48:30Z</time>
      </trkpt>
      <trkpt lat="44.24039" lon="0.69857">
        <ele>97.23046875</ele>
        <time>2014-12-13T08:48:46Z</time>
      </trkpt>
      <trkpt lat="44.24036" lon="0.69888">
        <ele>94.346557617188</ele>
        <time>2014-12-13T08:49:08Z</time>
      </trkpt>
      <trkpt lat="44.24035" lon="0.69905">
        <ele>90.98193359375</ele>
        <time>2014-12-13T08:49:20Z</time>
      </trkpt>
      <trkpt lat="44.24037" lon="0.69923">
        <ele>90.501342773438</ele>
        <time>2014-12-13T08:49:32Z</time>
      </trkpt>
      <trkpt lat="44.24041" lon="0.69963">
        <ele>91.462524414062</ele>
        <time>2014-12-13T08:49:59Z</time>
      </trkpt>
      <trkpt lat="44.24043" lon="0.69983">
        <ele>92.423950195312</ele>
        <time>2014-12-13T08:50:19Z</time>
      </trkpt>
      <trkpt lat="44.24047" lon="0.69984">
        <ele>92.423950195312</ele>
        <time>2014-12-13T08:50:38Z</time>
      </trkpt>
      <trkpt lat="44.24049" lon="0.69987">
        <ele>91.462524414062</ele>
        <time>2014-12-13T08:51:08Z</time>
      </trkpt>
      <trkpt lat="44.24056" lon="0.69989">
        <ele>92.904541015625</ele>
        <time>2014-12-13T08:51:19Z</time>
      </trkpt>
      <trkpt lat="44.24069" lon="0.69987">
        <ele>92.904541015625</ele>
        <time>2014-12-13T08:51:33Z</time>
      </trkpt>
      <trkpt lat="44.24089" lon="0.69979">
        <ele>96.269287109375</ele>
        <time>2014-12-13T08:51:58Z</time>
      </trkpt>
      <trkpt lat="44.24106" lon="0.69964">
        <ele>99.153076171875</ele>
        <time>2014-12-13T08:52:20Z</time>
      </trkpt>
      <trkpt lat="44.24126" lon="0.69943">
        <ele>102.037109375</ele>
        <time>2014-12-13T08:52:47Z</time>
      </trkpt>
      <trkpt lat="44.24134" lon="0.69935">
        <ele>102.99829101562</ele>
        <time>2014-12-13T08:53:00Z</time>
      </trkpt>
      <trkpt lat="44.24146" lon="0.69927">
        <ele>106.36303710938</ele>
        <time>2014-12-13T08:53:20Z</time>
      </trkpt>
      <trkpt lat="44.2416" lon="0.69912">
        <ele>108.76623535156</ele>
        <time>2014-12-13T08:53:43Z</time>
      </trkpt>
      <trkpt lat="44.24173" lon="0.69899">
        <ele>110.20825195312</ele>
        <time>2014-12-13T08:54:06Z</time>
      </trkpt>
      <trkpt lat="44.24187" lon="0.69884">
        <ele>109.72766113281</ele>
        <time>2014-12-13T08:54:31Z</time>
      </trkpt>
      <trkpt lat="44.24206" lon="0.69868">
        <ele>112.61157226562</ele>
        <time>2014-12-13T08:55:03Z</time>
      </trkpt>
      <trkpt lat="44.24225" lon="0.69853">
        <ele>116.9375</ele>
        <time>2014-12-13T08:55:33Z</time>
      </trkpt>
      <trkpt lat="44.24235" lon="0.69842">
        <ele>118.86010742188</ele>
        <time>2014-12-13T08:55:53Z</time>
      </trkpt>
      <trkpt lat="44.24246" lon="0.69833">
        <ele>122.22473144531</ele>
        <time>2014-12-13T08:56:16Z</time>
      </trkpt>
      <trkpt lat="44.24258" lon="0.69821">
        <ele>125.10876464844</ele>
        <time>2014-12-13T08:56:40Z</time>
      </trkpt>
      <trkpt lat="44.24272" lon="0.69809">
        <ele>127.99255371094</ele>
        <time>2014-12-13T08:57:06Z</time>
      </trkpt>
      <trkpt lat="44.24287" lon="0.6979">
        <ele>132.31860351562</ele>
        <time>2014-12-13T08:57:36Z</time>
      </trkpt>
      <trkpt lat="44.24307" lon="0.69777">
        <ele>136.16394042969</ele>
        <time>2014-12-13T08:58:07Z</time>
      </trkpt>
      <trkpt lat="44.24321" lon="0.69775">
        <ele>139.0478515625</ele>
        <time>2014-12-13T08:58:30Z</time>
      </trkpt>
      <trkpt lat="44.24331" lon="0.69774">
        <ele>140.00915527344</ele>
        <time>2014-12-13T08:58:45Z</time>
      </trkpt>
      <trkpt lat="44.2434" lon="0.69774">
        <ele>140.00915527344</ele>
        <time>2014-12-13T08:58:59Z</time>
      </trkpt>
      <trkpt lat="44.24353" lon="0.69776">
        <ele>140.00915527344</ele>
        <time>2014-12-13T08:59:16Z</time>
      </trkpt>
      <trkpt lat="44.24365" lon="0.69777">
        <ele>139.52844238281</ele>
        <time>2014-12-13T08:59:33Z</time>
      </trkpt>
      <trkpt lat="44.24376" lon="0.69779">
        <ele>140.48986816406</ele>
        <time>2014-12-13T08:59:49Z</time>
      </trkpt>
      <trkpt lat="44.24386" lon="0.69783">
        <ele>145.29638671875</ele>
        <time>2014-12-13T09:00:05Z</time>
      </trkpt>
      <trkpt lat="44.24396" lon="0.69783">
        <ele>146.2578125</ele>
        <time>2014-12-13T09:00:21Z</time>
      </trkpt>
      <trkpt lat="44.24404" lon="0.69787">
        <ele>149.62231445312</ele>
        <time>2014-12-13T09:00:36Z</time>
      </trkpt>
      <trkpt lat="44.24414" lon="0.69791">
        <ele>153.94836425781</ele>
        <time>2014-12-13T09:00:49Z</time>
      </trkpt>
      <trkpt lat="44.24426" lon="0.6979">
        <ele>158.75476074219</ele>
        <time>2014-12-13T09:01:07Z</time>
      </trkpt>
      <trkpt lat="44.24437" lon="0.69788">
        <ele>158.27416992188</ele>
        <time>2014-12-13T09:01:22Z</time>
      </trkpt>
      <trkpt lat="44.24447" lon="0.69783">
        <ele>159.71618652344</ele>
        <time>2014-12-13T09:01:40Z</time>
      </trkpt>
      <trkpt lat="44.24461" lon="0.69782">
        <ele>165.48413085938</ele>
        <time>2014-12-13T09:02:02Z</time>
      </trkpt>
      <trkpt lat="44.24474" lon="0.69782">
        <ele>167.88732910156</ele>
        <time>2014-12-13T09:02:20Z</time>
      </trkpt>
      <trkpt lat="44.24486" lon="0.69779">
        <ele>169.32946777344</ele>
        <time>2014-12-13T09:02:37Z</time>
      </trkpt>
      <trkpt lat="44.24496" lon="0.69775">
        <ele>170.77136230469</ele>
        <time>2014-12-13T09:02:49Z</time>
      </trkpt>
      <trkpt lat="44.24506" lon="0.69767">
        <ele>170.77136230469</ele>
        <time>2014-12-13T09:03:06Z</time>
      </trkpt>
      <trkpt lat="44.2452" lon="0.69758">
        <ele>168.84875488281</ele>
        <time>2014-12-13T09:03:26Z</time>
      </trkpt>
      <trkpt lat="44.24536" lon="0.6975">
        <ele>167.88732910156</ele>
        <time>2014-12-13T09:03:46Z</time>
      </trkpt>
      <trkpt lat="44.24548" lon="0.69743">
        <ele>171.25207519531</ele>
        <time>2014-12-13T09:04:02Z</time>
      </trkpt>
      <trkpt lat="44.24559" lon="0.69735">
        <ele>171.73266601562</ele>
        <time>2014-12-13T09:04:16Z</time>
      </trkpt>
      <trkpt lat="44.24577" lon="0.69722">
        <ele>174.61657714844</ele>
        <time>2014-12-13T09:04:37Z</time>
      </trkpt>
      <trkpt lat="44.24593" lon="0.69704">
        <ele>176.05859375</ele>
        <time>2014-12-13T09:04:59Z</time>
      </trkpt>
      <trkpt lat="44.24604" lon="0.69695">
        <ele>176.53930664062</ele>
        <time>2014-12-13T09:05:17Z</time>
      </trkpt>
      <trkpt lat="44.24609" lon="0.69689">
        <ele>177.02001953125</ele>
        <time>2014-12-13T09:05:24Z</time>
      </trkpt>
      <trkpt lat="44.24617" lon="0.69677">
        <ele>177.50061035156</ele>
        <time>2014-12-13T09:05:36Z</time>
      </trkpt>
      <trkpt lat="44.24621" lon="0.69673">
        <ele>178.4619140625</ele>
        <time>2014-12-13T09:05:41Z</time>
      </trkpt>
      <trkpt lat="44.24622" lon="0.69666">
        <ele>179.42321777344</ele>
        <time>2014-12-13T09:05:56Z</time>
      </trkpt>
      <trkpt lat="44.24623" lon="0.69665">
        <ele>178.94262695312</ele>
        <time>2014-12-13T09:07:00Z</time>
      </trkpt>
      <trkpt lat="44.24629" lon="0.69662">
        <ele>179.90380859375</ele>
        <time>2014-12-13T09:07:18Z</time>
      </trkpt>
      <trkpt lat="44.24633" lon="0.69654">
        <ele>179.90380859375</ele>
        <time>2014-12-13T09:07:23Z</time>
      </trkpt>
      <trkpt lat="44.24633" lon="0.69643">
        <ele>179.90380859375</ele>
        <time>2014-12-13T09:07:29Z</time>
      </trkpt>
      <trkpt lat="44.24624" lon="0.69616">
        <ele>179.42321777344</ele>
        <time>2014-12-13T09:07:47Z</time>
      </trkpt>
      <trkpt lat="44.2462" lon="0.69595">
        <ele>178.4619140625</ele>
        <time>2014-12-13T09:08:01Z</time>
      </trkpt>
      <trkpt lat="44.24617" lon="0.69573">
        <ele>177.50061035156</ele>
        <time>2014-12-13T09:08:16Z</time>
      </trkpt>
      <trkpt lat="44.24611" lon="0.69519">
        <ele>172.69396972656</ele>
        <time>2014-12-13T09:08:51Z</time>
      </trkpt>
      <trkpt lat="44.24594" lon="0.69464">
        <ele>165.48413085938</ele>
        <time>2014-12-13T09:09:26Z</time>
      </trkpt>
      <trkpt lat="44.24581" lon="0.69421">
        <ele>159.71618652344</ele>
        <time>2014-12-13T09:09:57Z</time>
      </trkpt>
      <trkpt lat="44.24566" lon="0.69367">
        <ele>154.42895507812</ele>
        <time>2014-12-13T09:10:34Z</time>
      </trkpt>
      <trkpt lat="44.24552" lon="0.69315">
        <ele>153.46765136719</ele>
        <time>2014-12-13T09:11:09Z</time>
      </trkpt>
      <trkpt lat="44.24531" lon="0.69271">
        <ele>151.06420898438</ele>
        <time>2014-12-13T09:11:42Z</time>
      </trkpt>
      <trkpt lat="44.24509" lon="0.69237">
        <ele>149.1416015625</ele>
        <time>2014-12-13T09:12:12Z</time>
      </trkpt>
      <trkpt lat="44.24485" lon="0.69196">
        <ele>149.1416015625</ele>
        <time>2014-12-13T09:12:46Z</time>
      </trkpt>
      <trkpt lat="44.24472" lon="0.69163">
        <ele>148.66101074219</ele>
        <time>2014-12-13T09:13:10Z</time>
      </trkpt>
      <trkpt lat="44.24456" lon="0.6913">
        <ele>148.66101074219</ele>
        <time>2014-12-13T09:13:37Z</time>
      </trkpt>
      <trkpt lat="44.24445" lon="0.69114">
        <ele>148.18041992188</ele>
        <time>2014-12-13T09:13:52Z</time>
      </trkpt>
      <trkpt lat="44.2445" lon="0.69105">
        <ele>147.21899414062</ele>
        <time>2014-12-13T09:14:03Z</time>
      </trkpt>
      <trkpt lat="44.24457" lon="0.69095">
        <ele>147.69970703125</ele>
        <time>2014-12-13T09:14:20Z</time>
      </trkpt>
      <trkpt lat="44.2446" lon="0.69088">
        <ele>147.69970703125</ele>
        <time>2014-12-13T09:14:31Z</time>
      </trkpt>
      <trkpt lat="44.24459" lon="0.69074">
        <ele>146.2578125</ele>
        <time>2014-12-13T09:14:39Z</time>
      </trkpt>
      <trkpt lat="44.24454" lon="0.6905">
        <ele>142.41247558594</ele>
        <time>2014-12-13T09:14:58Z</time>
      </trkpt>
      <trkpt lat="44.24454" lon="0.69049">
        <ele>142.41247558594</ele>
        <time>2014-12-13T09:14:59Z</time>
      </trkpt>
      <trkpt lat="44.24461" lon="0.69041">
        <ele>143.37365722656</ele>
        <time>2014-12-13T09:15:06Z</time>
      </trkpt>
      <trkpt lat="44.24473" lon="0.69048">
        <ele>140.00915527344</ele>
        <time>2014-12-13T09:15:23Z</time>
      </trkpt>
      <trkpt lat="44.24489" lon="0.69058">
        <ele>137.60583496094</ele>
        <time>2014-12-13T09:15:44Z</time>
      </trkpt>
      <trkpt lat="44.24505" lon="0.69059">
        <ele>137.60583496094</ele>
        <time>2014-12-13T09:16:02Z</time>
      </trkpt>
      <trkpt lat="44.24517" lon="0.6906">
        <ele>139.52844238281</ele>
        <time>2014-12-13T09:16:19Z</time>
      </trkpt>
      <trkpt lat="44.24528" lon="0.69057">
        <ele>139.52844238281</ele>
        <time>2014-12-13T09:16:31Z</time>
      </trkpt>
      <trkpt lat="44.24536" lon="0.69048">
        <ele>138.08654785156</ele>
        <time>2014-12-13T09:16:46Z</time>
      </trkpt>
      <trkpt lat="44.24537" lon="0.69032">
        <ele>129.43469238281</ele>
        <time>2014-12-13T09:17:03Z</time>
      </trkpt>
      <trkpt lat="44.24541" lon="0.69016">
        <ele>124.14733886719</ele>
        <time>2014-12-13T09:17:18Z</time>
      </trkpt>
      <trkpt lat="44.24552" lon="0.69001">
        <ele>120.30212402344</ele>
        <time>2014-12-13T09:17:34Z</time>
      </trkpt>
      <trkpt lat="44.24555" lon="0.68997">
        <ele>121.26354980469</ele>
        <time>2014-12-13T09:17:38Z</time>
      </trkpt>
      <trkpt lat="44.2457" lon="0.68978">
        <ele>119.82141113281</ele>
        <time>2014-12-13T09:17:57Z</time>
      </trkpt>
      <trkpt lat="44.24581" lon="0.68965">
        <ele>120.30212402344</ele>
        <time>2014-12-13T09:18:13Z</time>
      </trkpt>
      <trkpt lat="44.24591" lon="0.68957">
        <ele>122.22473144531</ele>
        <time>2014-12-13T09:18:22Z</time>
      </trkpt>
      <trkpt lat="44.24595" lon="0.68954">
        <ele>122.22473144531</ele>
        <time>2014-12-13T09:18:26Z</time>
      </trkpt>
      <trkpt lat="44.24603" lon="0.68948">
        <ele>120.78283691406</ele>
        <time>2014-12-13T09:18:34Z</time>
      </trkpt>
      <trkpt lat="44.24614" lon="0.6894">
        <ele>117.89880371094</ele>
        <time>2014-12-13T09:18:48Z</time>
      </trkpt>
      <trkpt lat="44.24617" lon="0.68938">
        <ele>116.9375</ele>
        <time>2014-12-13T09:18:51Z</time>
      </trkpt>
      <trkpt lat="44.24625" lon="0.68931">
        <ele>117.41821289062</ele>
        <time>2014-12-13T09:19:00Z</time>
      </trkpt>
      <trkpt lat="44.24629" lon="0.68913">
        <ele>115.01489257812</ele>
        <time>2014-12-13T09:19:19Z</time>
      </trkpt>
      <trkpt lat="44.2462" lon="0.68906">
        <ele>110.68884277344</ele>
        <time>2014-12-13T09:19:34Z</time>
      </trkpt>
      <trkpt lat="44.24614" lon="0.68906">
        <ele>109.72766113281</ele>
        <time>2014-12-13T09:19:42Z</time>
      </trkpt>
      <trkpt lat="44.246" lon="0.68914">
        <ele>107.80505371094</ele>
        <time>2014-12-13T09:19:59Z</time>
      </trkpt>
      <trkpt lat="44.24585" lon="0.68919">
        <ele>109.72766113281</ele>
        <time>2014-12-13T09:20:14Z</time>
      </trkpt>
      <trkpt lat="44.24573" lon="0.68921">
        <ele>109.24694824219</ele>
        <time>2014-12-13T09:20:29Z</time>
      </trkpt>
      <trkpt lat="44.24563" lon="0.68921">
        <ele>108.28564453125</ele>
        <time>2014-12-13T09:20:46Z</time>
      </trkpt>
      <trkpt lat="44.24556" lon="0.68918">
        <ele>109.24694824219</ele>
        <time>2014-12-13T09:21:01Z</time>
      </trkpt>
      <trkpt lat="44.24547" lon="0.68915">
        <ele>108.76623535156</ele>
        <time>2014-12-13T09:21:13Z</time>
      </trkpt>
      <trkpt lat="44.24538" lon="0.68909">
        <ele>106.36303710938</ele>
        <time>2014-12-13T09:21:32Z</time>
      </trkpt>
      <trkpt lat="44.24528" lon="0.68902">
        <ele>104.4404296875</ele>
        <time>2014-12-13T09:21:48Z</time>
      </trkpt>
      <trkpt lat="44.24523" lon="0.68893">
        <ele>103.95971679688</ele>
        <time>2014-12-13T09:22:02Z</time>
      </trkpt>
      <trkpt lat="44.24522" lon="0.68875">
        <ele>103.95971679688</ele>
        <time>2014-12-13T09:22:20Z</time>
      </trkpt>
      <trkpt lat="44.24527" lon="0.68858">
        <ele>102.037109375</ele>
        <time>2014-12-13T09:22:37Z</time>
      </trkpt>
      <trkpt lat="44.24532" lon="0.68843">
        <ele>100.11450195312</ele>
        <time>2014-12-13T09:22:52Z</time>
      </trkpt>
      <trkpt lat="44.24535" lon="0.68827">
        <ele>99.6337890625</ele>
        <time>2014-12-13T09:23:13Z</time>
      </trkpt>
      <trkpt lat="44.24539" lon="0.68813">
        <ele>101.07568359375</ele>
        <time>2014-12-13T09:23:34Z</time>
      </trkpt>
      <trkpt lat="44.2454" lon="0.68804">
        <ele>101.55639648438</ele>
        <time>2014-12-13T09:23:47Z</time>
      </trkpt>
      <trkpt lat="44.24547" lon="0.68792">
        <ele>101.07568359375</ele>
        <time>2014-12-13T09:24:00Z</time>
      </trkpt>
      <trkpt lat="44.24555" lon="0.68781">
        <ele>97.711181640625</ele>
        <time>2014-12-13T09:24:18Z</time>
      </trkpt>
      <trkpt lat="44.24562" lon="0.68772">
        <ele>95.307739257812</ele>
        <time>2014-12-13T09:24:31Z</time>
      </trkpt>
      <trkpt lat="44.24566" lon="0.68764">
        <ele>90.98193359375</ele>
        <time>2014-12-13T09:24:45Z</time>
      </trkpt>
      <trkpt lat="44.24569" lon="0.68756">
        <ele>89.059326171875</ele>
        <time>2014-12-13T09:25:02Z</time>
      </trkpt>
      <trkpt lat="44.24577" lon="0.68745">
        <ele>87.6171875</ele>
        <time>2014-12-13T09:25:19Z</time>
      </trkpt>
      <trkpt lat="44.24582" lon="0.6874">
        <ele>87.136596679688</ele>
        <time>2014-12-13T09:25:27Z</time>
      </trkpt>
      <trkpt lat="44.2459" lon="0.68728">
        <ele>87.6171875</ele>
        <time>2014-12-13T09:25:43Z</time>
      </trkpt>
      <trkpt lat="44.24597" lon="0.68719">
        <ele>85.213989257812</ele>
        <time>2014-12-13T09:25:58Z</time>
      </trkpt>
      <trkpt lat="44.24602" lon="0.68709">
        <ele>84.252685546875</ele>
        <time>2014-12-13T09:26:13Z</time>
      </trkpt>
      <trkpt lat="44.24611" lon="0.68695">
        <ele>82.330078125</ele>
        <time>2014-12-13T09:26:31Z</time>
      </trkpt>
      <trkpt lat="44.24618" lon="0.68684">
        <ele>83.291381835938</ele>
        <time>2014-12-13T09:26:45Z</time>
      </trkpt>
      <trkpt lat="44.24629" lon="0.6867">
        <ele>86.17529296875</ele>
        <time>2014-12-13T09:27:01Z</time>
      </trkpt>
      <trkpt lat="44.24635" lon="0.68651">
        <ele>83.77197265625</ele>
        <time>2014-12-13T09:27:18Z</time>
      </trkpt>
      <trkpt lat="44.24636" lon="0.68645">
        <ele>83.291381835938</ele>
        <time>2014-12-13T09:27:24Z</time>
      </trkpt>
      <trkpt lat="44.2464" lon="0.6863">
        <ele>80.407470703125</ele>
        <time>2014-12-13T09:27:36Z</time>
      </trkpt>
      <trkpt lat="44.24647" lon="0.68609">
        <ele>76.081420898438</ele>
        <time>2014-12-13T09:27:54Z</time>
      </trkpt>
      <trkpt lat="44.24647" lon="0.68595">
        <ele>74.158813476562</ele>
        <time>2014-12-13T09:28:09Z</time>
      </trkpt>
      <trkpt lat="44.24653" lon="0.6858">
        <ele>71.755493164062</ele>
        <time>2014-12-13T09:28:24Z</time>
      </trkpt>
      <trkpt lat="44.2466" lon="0.68558">
        <ele>69.352294921875</ele>
        <time>2014-12-13T09:28:43Z</time>
      </trkpt>
      <trkpt lat="44.24662" lon="0.6853">
        <ele>67.910278320312</ele>
        <time>2014-12-13T09:29:06Z</time>
      </trkpt>
      <trkpt lat="44.24663" lon="0.68521">
        <ele>68.390869140625</ele>
        <time>2014-12-13T09:29:14Z</time>
      </trkpt>
      <trkpt lat="44.24657" lon="0.68491">
        <ele>63.584350585938</ele>
        <time>2014-12-13T09:29:37Z</time>
      </trkpt>
      <trkpt lat="44.24654" lon="0.68471">
        <ele>62.142333984375</ele>
        <time>2014-12-13T09:29:54Z</time>
      </trkpt>
      <trkpt lat="44.24647" lon="0.68437">
        <ele>58.777709960938</ele>
        <time>2014-12-13T09:30:22Z</time>
      </trkpt>
      <trkpt lat="44.24649" lon="0.68436">
        <ele>58.777709960938</ele>
        <time>2014-12-13T09:30:51Z</time>
      </trkpt>
      <trkpt lat="44.24649" lon="0.68436">
        <ele>58.777709960938</ele>
        <time>2014-12-13T09:31:30Z</time>
      </trkpt>
      <trkpt lat="44.24651" lon="0.68429">
        <ele>59.258422851562</ele>
        <time>2014-12-13T09:31:53Z</time>
      </trkpt>
      <trkpt lat="44.24652" lon="0.68421">
        <ele>59.258422851562</ele>
        <time>2014-12-13T09:32:18Z</time>
      </trkpt>
      <trkpt lat="44.24662" lon="0.68404">
        <ele>60.2197265625</ele>
        <time>2014-12-13T09:32:41Z</time>
      </trkpt>
      <trkpt lat="44.24689" lon="0.68396">
        <ele>59.739135742188</ele>
        <time>2014-12-13T09:33:05Z</time>
      </trkpt>
      <trkpt lat="44.24708" lon="0.68386">
        <ele>61.661743164062</ele>
        <time>2014-12-13T09:33:26Z</time>
      </trkpt>
      <trkpt lat="44.24719" lon="0.68399">
        <ele>64.065063476562</ele>
        <time>2014-12-13T09:33:47Z</time>
      </trkpt>
      <trkpt lat="44.24727" lon="0.68409">
        <ele>65.0263671875</ele>
        <time>2014-12-13T09:34:00Z</time>
      </trkpt>
      <trkpt lat="44.24753" lon="0.68429">
        <ele>64.065063476562</ele>
        <time>2014-12-13T09:34:29Z</time>
      </trkpt>
      <trkpt lat="44.24779" lon="0.68449">
        <ele>65.987670898438</ele>
        <time>2014-12-13T09:34:57Z</time>
      </trkpt>
      <trkpt lat="44.24802" lon="0.6847">
        <ele>65.507080078125</ele>
        <time>2014-12-13T09:35:24Z</time>
      </trkpt>
      <trkpt lat="44.24823" lon="0.68501">
        <ele>65.0263671875</ele>
        <time>2014-12-13T09:35:52Z</time>
      </trkpt>
      <trkpt lat="44.24836" lon="0.68527">
        <ele>65.0263671875</ele>
        <time>2014-12-13T09:36:15Z</time>
      </trkpt>
      <trkpt lat="44.24838" lon="0.68532">
        <ele>65.0263671875</ele>
        <time>2014-12-13T09:36:20Z</time>
      </trkpt>
      <trkpt lat="44.24839" lon="0.68568">
        <ele>65.507080078125</ele>
        <time>2014-12-13T09:36:47Z</time>
      </trkpt>
      <trkpt lat="44.24839" lon="0.68596">
        <ele>65.987670898438</ele>
        <time>2014-12-13T09:37:08Z</time>
      </trkpt>
      <trkpt lat="44.24849" lon="0.68627">
        <ele>68.390869140625</ele>
        <time>2014-12-13T09:37:33Z</time>
      </trkpt>
      <trkpt lat="44.24857" lon="0.68658">
        <ele>68.87158203125</ele>
        <time>2014-12-13T09:37:58Z</time>
      </trkpt>
      <trkpt lat="44.24864" lon="0.68689">
        <ele>68.87158203125</ele>
        <time>2014-12-13T09:38:23Z</time>
      </trkpt>
      <trkpt lat="44.24876" lon="0.68713">
        <ele>68.390869140625</ele>
        <time>2014-12-13T09:38:45Z</time>
      </trkpt>
      <trkpt lat="44.24877" lon="0.68718">
        <ele>68.390869140625</ele>
        <time>2014-12-13T09:38:49Z</time>
      </trkpt>
      <trkpt lat="44.2488" lon="0.68746">
        <ele>67.910278320312</ele>
        <time>2014-12-13T09:39:10Z</time>
      </trkpt>
      <trkpt lat="44.24882" lon="0.68765">
        <ele>68.390869140625</ele>
        <time>2014-12-13T09:39:25Z</time>
      </trkpt>
      <trkpt lat="44.24892" lon="0.68795">
        <ele>69.832885742188</ele>
        <time>2014-12-13T09:39:51Z</time>
      </trkpt>
      <trkpt lat="44.2491" lon="0.68801">
        <ele>68.87158203125</ele>
        <time>2014-12-13T09:40:15Z</time>
      </trkpt>
      <trkpt lat="44.24918" lon="0.68795">
        <ele>68.390869140625</ele>
        <time>2014-12-13T09:40:27Z</time>
      </trkpt>
      <trkpt lat="44.24943" lon="0.68777">
        <ele>66.948974609375</ele>
        <time>2014-12-13T09:40:55Z</time>
      </trkpt>
      <trkpt lat="44.24962" lon="0.68761">
        <ele>66.948974609375</ele>
        <time>2014-12-13T09:41:19Z</time>
      </trkpt>
      <trkpt lat="44.24974" lon="0.68753">
        <ele>67.4296875</ele>
        <time>2014-12-13T09:41:34Z</time>
      </trkpt>
      <trkpt lat="44.24995" lon="0.6874">
        <ele>68.390869140625</ele>
        <time>2014-12-13T09:41:56Z</time>
      </trkpt>
      <trkpt lat="44.25017" lon="0.6872">
        <ele>67.4296875</ele>
        <time>2014-12-13T09:42:23Z</time>
      </trkpt>
      <trkpt lat="44.25038" lon="0.68706">
        <ele>70.794189453125</ele>
        <time>2014-12-13T09:42:53Z</time>
      </trkpt>
      <trkpt lat="44.25039" lon="0.68701">
        <ele>70.3134765625</ele>
        <time>2014-12-13T09:43:13Z</time>
      </trkpt>
      <trkpt lat="44.25029" lon="0.68687">
        <ele>68.87158203125</ele>
        <time>2014-12-13T09:43:28Z</time>
      </trkpt>
      <trkpt lat="44.25015" lon="0.6866">
        <ele>69.352294921875</ele>
        <time>2014-12-13T09:43:51Z</time>
      </trkpt>
      <trkpt lat="44.25003" lon="0.68636">
        <ele>68.390869140625</ele>
        <time>2014-12-13T09:44:14Z</time>
      </trkpt>
      <trkpt lat="44.24993" lon="0.68613">
        <ele>65.987670898438</ele>
        <time>2014-12-13T09:44:33Z</time>
      </trkpt>
      <trkpt lat="44.24979" lon="0.68578">
        <ele>65.507080078125</ele>
        <time>2014-12-13T09:45:00Z</time>
      </trkpt>
      <trkpt lat="44.24966" lon="0.68546">
        <ele>66.46826171875</ele>
        <time>2014-12-13T09:45:26Z</time>
      </trkpt>
      <trkpt lat="44.24952" lon="0.68514">
        <ele>65.507080078125</ele>
        <time>2014-12-13T09:45:54Z</time>
      </trkpt>
      <trkpt lat="44.24933" lon="0.6848">
        <ele>65.0263671875</ele>
        <time>2014-12-13T09:46:24Z</time>
      </trkpt>
      <trkpt lat="44.24917" lon="0.68449">
        <ele>64.065063476562</ele>
        <time>2014-12-13T09:46:52Z</time>
      </trkpt>
      <trkpt lat="44.24903" lon="0.68427">
        <ele>64.545654296875</ele>
        <time>2014-12-13T09:47:12Z</time>
      </trkpt>
      <trkpt lat="44.24891" lon="0.68407">
        <ele>61.661743164062</ele>
        <time>2014-12-13T09:47:31Z</time>
      </trkpt>
      <trkpt lat="44.24873" lon="0.68381">
        <ele>62.622924804688</ele>
        <time>2014-12-13T09:47:56Z</time>
      </trkpt>
      <trkpt lat="44.24857" lon="0.6836">
        <ele>64.545654296875</ele>
        <time>2014-12-13T09:48:19Z</time>
      </trkpt>
      <trkpt lat="44.24853" lon="0.68353">
        <ele>65.507080078125</ele>
        <time>2014-12-13T09:48:25Z</time>
      </trkpt>
      <trkpt lat="44.24843" lon="0.68342">
        <ele>68.390869140625</ele>
        <time>2014-12-13T09:48:39Z</time>
      </trkpt>
      <trkpt lat="44.2483" lon="0.68332">
        <ele>65.507080078125</ele>
        <time>2014-12-13T09:48:59Z</time>
      </trkpt>
      <trkpt lat="44.24819" lon="0.68326">
        <ele>65.0263671875</ele>
        <time>2014-12-13T09:49:16Z</time>
      </trkpt>
      <trkpt lat="44.24808" lon="0.68317">
        <ele>64.065063476562</ele>
        <time>2014-12-13T09:49:31Z</time>
      </trkpt>
      <trkpt lat="44.2479" lon="0.6831">
        <ele>62.622924804688</ele>
        <time>2014-12-13T09:49:51Z</time>
      </trkpt>
      <trkpt lat="44.24781" lon="0.68305">
        <ele>62.142333984375</ele>
        <time>2014-12-13T09:50:03Z</time>
      </trkpt>
      <trkpt lat="44.24773" lon="0.68298">
        <ele>61.661743164062</ele>
        <time>2014-12-13T09:50:15Z</time>
      </trkpt>
      <trkpt lat="44.24768" lon="0.68292">
        <ele>62.142333984375</ele>
        <time>2014-12-13T09:50:22Z</time>
      </trkpt>
      <trkpt lat="44.24764" lon="0.68279">
        <ele>63.103637695312</ele>
        <time>2014-12-13T09:50:39Z</time>
      </trkpt>
      <trkpt lat="44.24755" lon="0.68267">
        <ele>63.103637695312</ele>
        <time>2014-12-13T09:50:55Z</time>
      </trkpt>
      <trkpt lat="44.24736" lon="0.68251">
        <ele>61.181030273438</ele>
        <time>2014-12-13T09:51:16Z</time>
      </trkpt>
      <trkpt lat="44.24719" lon="0.68236">
        <ele>60.700317382812</ele>
        <time>2014-12-13T09:51:36Z</time>
      </trkpt>
      <trkpt lat="44.24709" lon="0.68228">
        <ele>61.661743164062</ele>
        <time>2014-12-13T09:51:49Z</time>
      </trkpt>
      <trkpt lat="44.24705" lon="0.68225">
        <ele>61.661743164062</ele>
        <time>2014-12-13T09:51:53Z</time>
      </trkpt>
      <trkpt lat="44.24684" lon="0.68207">
        <ele>61.661743164062</ele>
        <time>2014-12-13T09:52:18Z</time>
      </trkpt>
      <trkpt lat="44.24656" lon="0.68183">
        <ele>60.700317382812</ele>
        <time>2014-12-13T09:52:49Z</time>
      </trkpt>
      <trkpt lat="44.24622" lon="0.68154">
        <ele>57.816528320312</ele>
        <time>2014-12-13T09:53:29Z</time>
      </trkpt>
      <trkpt lat="44.24598" lon="0.68136">
        <ele>57.335815429688</ele>
        <time>2014-12-13T09:53:57Z</time>
      </trkpt>
      <trkpt lat="44.24588" lon="0.68125">
        <ele>57.816528320312</ele>
        <time>2014-12-13T09:54:11Z</time>
      </trkpt>
      <trkpt lat="44.2457" lon="0.68108">
        <ele>57.816528320312</ele>
        <time>2014-12-13T09:54:36Z</time>
      </trkpt>
      <trkpt lat="44.24553" lon="0.68093">
        <ele>56.855102539062</ele>
        <time>2014-12-13T09:54:57Z</time>
      </trkpt>
      <trkpt lat="44.24538" lon="0.68084">
        <ele>54.932373046875</ele>
        <time>2014-12-13T09:55:16Z</time>
      </trkpt>
      <trkpt lat="44.24517" lon="0.68067">
        <ele>55.4130859375</ele>
        <time>2014-12-13T09:55:40Z</time>
      </trkpt>
      <trkpt lat="44.24496" lon="0.68049">
        <ele>58.777709960938</ele>
        <time>2014-12-13T09:56:04Z</time>
      </trkpt>
      <trkpt lat="44.24478" lon="0.6804">
        <ele>58.777709960938</ele>
        <time>2014-12-13T09:56:26Z</time>
      </trkpt>
      <trkpt lat="44.24465" lon="0.68032">
        <ele>60.700317382812</ele>
        <time>2014-12-13T09:56:41Z</time>
      </trkpt>
      <trkpt lat="44.24452" lon="0.68023">
        <ele>65.507080078125</ele>
        <time>2014-12-13T09:56:59Z</time>
      </trkpt>
      <trkpt lat="44.24441" lon="0.68018">
        <ele>65.0263671875</ele>
        <time>2014-12-13T09:57:12Z</time>
      </trkpt>
      <trkpt lat="44.24418" lon="0.68003">
        <ele>62.142333984375</ele>
        <time>2014-12-13T09:57:35Z</time>
      </trkpt>
      <trkpt lat="44.244" lon="0.67991">
        <ele>59.739135742188</ele>
        <time>2014-12-13T09:57:53Z</time>
      </trkpt>
      <trkpt lat="44.24381" lon="0.67979">
        <ele>60.2197265625</ele>
        <time>2014-12-13T09:58:13Z</time>
      </trkpt>
      <trkpt lat="44.24366" lon="0.67968">
        <ele>60.2197265625</ele>
        <time>2014-12-13T09:58:29Z</time>
      </trkpt>
      <trkpt lat="44.24343" lon="0.67954">
        <ele>61.181030273438</ele>
        <time>2014-12-13T09:58:52Z</time>
      </trkpt>
      <trkpt lat="44.24327" lon="0.67943">
        <ele>60.700317382812</ele>
        <time>2014-12-13T09:59:09Z</time>
      </trkpt>
      <trkpt lat="44.24316" lon="0.67937">
        <ele>62.142333984375</ele>
        <time>2014-12-13T09:59:23Z</time>
      </trkpt>
      <trkpt lat="44.24303" lon="0.67928">
        <ele>62.622924804688</ele>
        <time>2014-12-13T09:59:36Z</time>
      </trkpt>
      <trkpt lat="44.24288" lon="0.67918">
        <ele>63.584350585938</ele>
        <time>2014-12-13T09:59:50Z</time>
      </trkpt>
      <trkpt lat="44.24275" lon="0.6791">
        <ele>63.584350585938</ele>
        <time>2014-12-13T10:00:02Z</time>
      </trkpt>
      <trkpt lat="44.24259" lon="0.67901">
        <ele>62.142333984375</ele>
        <time>2014-12-13T10:00:19Z</time>
      </trkpt>
      <trkpt lat="44.2424" lon="0.67887">
        <ele>61.661743164062</ele>
        <time>2014-12-13T10:00:39Z</time>
      </trkpt>
      <trkpt lat="44.2423" lon="0.67879">
        <ele>59.739135742188</ele>
        <time>2014-12-13T10:00:51Z</time>
      </trkpt>
      <trkpt lat="44.24226" lon="0.67877">
        <ele>59.739135742188</ele>
        <time>2014-12-13T10:00:57Z</time>
      </trkpt>
      <trkpt lat="44.2422" lon="0.67873">
        <ele>59.739135742188</ele>
        <time>2014-12-13T10:01:03Z</time>
      </trkpt>
      <trkpt lat="44.24189" lon="0.67852">
        <ele>62.142333984375</ele>
        <time>2014-12-13T10:01:33Z</time>
      </trkpt>
      <trkpt lat="44.24166" lon="0.67837">
        <ele>61.661743164062</ele>
        <time>2014-12-13T10:01:58Z</time>
      </trkpt>
      <trkpt lat="44.2416" lon="0.67835">
        <ele>62.142333984375</ele>
        <time>2014-12-13T10:02:08Z</time>
      </trkpt>
      <trkpt lat="44.24136" lon="0.67821">
        <ele>62.142333984375</ele>
        <time>2014-12-13T10:02:32Z</time>
      </trkpt>
      <trkpt lat="44.24113" lon="0.67811">
        <ele>60.700317382812</ele>
        <time>2014-12-13T10:02:57Z</time>
      </trkpt>
      <trkpt lat="44.24084" lon="0.67802">
        <ele>59.258422851562</ele>
        <time>2014-12-13T10:03:26Z</time>
      </trkpt>
      <trkpt lat="44.2407" lon="0.67798">
        <ele>58.297119140625</ele>
        <time>2014-12-13T10:03:43Z</time>
      </trkpt>
      <trkpt lat="44.24048" lon="0.67791">
        <ele>58.777709960938</ele>
        <time>2014-12-13T10:04:04Z</time>
      </trkpt>
      <trkpt lat="44.2402" lon="0.67787">
        <ele>59.739135742188</ele>
        <time>2014-12-13T10:04:31Z</time>
      </trkpt>
      <trkpt lat="44.24004" lon="0.67785">
        <ele>60.700317382812</ele>
        <time>2014-12-13T10:04:46Z</time>
      </trkpt>
      <trkpt lat="44.23989" lon="0.6778">
        <ele>59.739135742188</ele>
        <time>2014-12-13T10:05:03Z</time>
      </trkpt>
      <trkpt lat="44.23974" lon="0.67777">
        <ele>63.103637695312</ele>
        <time>2014-12-13T10:05:18Z</time>
      </trkpt>
      <trkpt lat="44.23961" lon="0.67777">
        <ele>62.142333984375</ele>
        <time>2014-12-13T10:05:31Z</time>
      </trkpt>
      <trkpt lat="44.23946" lon="0.67776">
        <ele>63.584350585938</ele>
        <time>2014-12-13T10:05:44Z</time>
      </trkpt>
      <trkpt lat="44.23929" lon="0.67776">
        <ele>60.700317382812</ele>
        <time>2014-12-13T10:06:01Z</time>
      </trkpt>
      <trkpt lat="44.23914" lon="0.67775">
        <ele>61.181030273438</ele>
        <time>2014-12-13T10:06:16Z</time>
      </trkpt>
      <trkpt lat="44.23892" lon="0.67774">
        <ele>62.622924804688</ele>
        <time>2014-12-13T10:06:38Z</time>
      </trkpt>
      <trkpt lat="44.2387" lon="0.67778">
        <ele>58.297119140625</ele>
        <time>2014-12-13T10:07:01Z</time>
      </trkpt>
      <trkpt lat="44.23849" lon="0.6778">
        <ele>57.816528320312</ele>
        <time>2014-12-13T10:07:21Z</time>
      </trkpt>
      <trkpt lat="44.23831" lon="0.6778">
        <ele>58.297119140625</ele>
        <time>2014-12-13T10:07:39Z</time>
      </trkpt>
      <trkpt lat="44.23805" lon="0.6778">
        <ele>58.297119140625</ele>
        <time>2014-12-13T10:08:04Z</time>
      </trkpt>
      <trkpt lat="44.23776" lon="0.6778">
        <ele>56.855102539062</ele>
        <time>2014-12-13T10:08:30Z</time>
      </trkpt>
      <trkpt lat="44.23749" lon="0.67785">
        <ele>55.893798828125</ele>
        <time>2014-12-13T10:08:56Z</time>
      </trkpt>
      <trkpt lat="44.23746" lon="0.67784">
        <ele>56.37451171875</ele>
        <time>2014-12-13T10:09:00Z</time>
      </trkpt>
      <trkpt lat="44.23738" lon="0.67785">
        <ele>56.855102539062</ele>
        <time>2014-12-13T10:09:16Z</time>
      </trkpt>
      <trkpt lat="44.23718" lon="0.67784">
        <ele>56.37451171875</ele>
        <time>2014-12-13T10:09:38Z</time>
      </trkpt>
      <trkpt lat="44.2371" lon="0.67785">
        <ele>55.4130859375</ele>
        <time>2014-12-13T10:09:46Z</time>
      </trkpt>
      <trkpt lat="44.23707" lon="0.67785">
        <ele>54.932373046875</ele>
        <time>2014-12-13T10:09:49Z</time>
      </trkpt>
      <trkpt lat="44.2369" lon="0.67784">
        <ele>55.4130859375</ele>
        <time>2014-12-13T10:10:05Z</time>
      </trkpt>
      <trkpt lat="44.23664" lon="0.67783">
        <ele>53.490478515625</ele>
        <time>2014-12-13T10:10:30Z</time>
      </trkpt>
      <trkpt lat="44.23648" lon="0.67783">
        <ele>51.087158203125</ele>
        <time>2014-12-13T10:10:44Z</time>
      </trkpt>
      <trkpt lat="44.23628" lon="0.67781">
        <ele>52.048583984375</ele>
        <time>2014-12-13T10:11:02Z</time>
      </trkpt>
      <trkpt lat="44.23605" lon="0.6778">
        <ele>52.048583984375</ele>
        <time>2014-12-13T10:11:22Z</time>
      </trkpt>
      <trkpt lat="44.2358" lon="0.67774">
        <ele>54.451782226562</ele>
        <time>2014-12-13T10:11:44Z</time>
      </trkpt>
      <trkpt lat="44.23563" lon="0.67771">
        <ele>54.932373046875</ele>
        <time>2014-12-13T10:11:59Z</time>
      </trkpt>
      <trkpt lat="44.23543" lon="0.67767">
        <ele>56.855102539062</ele>
        <time>2014-12-13T10:12:16Z</time>
      </trkpt>
      <trkpt lat="44.23529" lon="0.67762">
        <ele>56.37451171875</ele>
        <time>2014-12-13T10:12:31Z</time>
      </trkpt>
      <trkpt lat="44.23511" lon="0.67752">
        <ele>54.932373046875</ele>
        <time>2014-12-13T10:12:49Z</time>
      </trkpt>
      <trkpt lat="44.23497" lon="0.67746">
        <ele>52.529174804688</ele>
        <time>2014-12-13T10:13:05Z</time>
      </trkpt>
      <trkpt lat="44.23475" lon="0.67741">
        <ele>50.606567382812</ele>
        <time>2014-12-13T10:13:27Z</time>
      </trkpt>
      <trkpt lat="44.23455" lon="0.67739">
        <ele>52.529174804688</ele>
        <time>2014-12-13T10:13:47Z</time>
      </trkpt>
      <trkpt lat="44.23448" lon="0.67744">
        <ele>53.009765625</ele>
        <time>2014-12-13T10:14:02Z</time>
      </trkpt>
      <trkpt lat="44.23441" lon="0.67771">
        <ele>55.4130859375</ele>
        <time>2014-12-13T10:14:19Z</time>
      </trkpt>
      <trkpt lat="44.2344" lon="0.6778">
        <ele>54.932373046875</ele>
        <time>2014-12-13T10:14:25Z</time>
      </trkpt>
      <trkpt lat="44.23431" lon="0.67822">
        <ele>55.893798828125</ele>
        <time>2014-12-13T10:14:54Z</time>
      </trkpt>
      <trkpt lat="44.23424" lon="0.67863">
        <ele>54.932373046875</ele>
        <time>2014-12-13T10:15:21Z</time>
      </trkpt>
      <trkpt lat="44.2342" lon="0.67897">
        <ele>56.855102539062</ele>
        <time>2014-12-13T10:15:44Z</time>
      </trkpt>
      <trkpt lat="44.23414" lon="0.6792">
        <ele>59.739135742188</ele>
        <time>2014-12-13T10:16:00Z</time>
      </trkpt>
      <trkpt lat="44.23414" lon="0.67926">
        <ele>59.258422851562</ele>
        <time>2014-12-13T10:16:04Z</time>
      </trkpt>
      <trkpt lat="44.23411" lon="0.6795">
        <ele>59.739135742188</ele>
        <time>2014-12-13T10:16:20Z</time>
      </trkpt>
      <trkpt lat="44.23409" lon="0.67971">
        <ele>60.2197265625</ele>
        <time>2014-12-13T10:16:34Z</time>
      </trkpt>
      <trkpt lat="44.23406" lon="0.67997">
        <ele>58.777709960938</ele>
        <time>2014-12-13T10:16:52Z</time>
      </trkpt>
      <trkpt lat="44.23399" lon="0.68034">
        <ele>57.335815429688</ele>
        <time>2014-12-13T10:17:15Z</time>
      </trkpt>
      <trkpt lat="44.23394" lon="0.68061">
        <ele>58.777709960938</ele>
        <time>2014-12-13T10:17:33Z</time>
      </trkpt>
      <trkpt lat="44.23393" lon="0.68068">
        <ele>59.258422851562</ele>
        <time>2014-12-13T10:17:38Z</time>
      </trkpt>
      <trkpt lat="44.2339" lon="0.68085">
        <ele>58.297119140625</ele>
        <time>2014-12-13T10:17:51Z</time>
      </trkpt>
      <trkpt lat="44.23387" lon="0.68105">
        <ele>57.816528320312</ele>
        <time>2014-12-13T10:18:06Z</time>
      </trkpt>
      <trkpt lat="44.23371" lon="0.68132">
        <ele>61.181030273438</ele>
        <time>2014-12-13T10:18:31Z</time>
      </trkpt>
      <trkpt lat="44.23365" lon="0.68143">
        <ele>61.181030273438</ele>
        <time>2014-12-13T10:18:42Z</time>
      </trkpt>
      <trkpt lat="44.23361" lon="0.68145">
        <ele>61.181030273438</ele>
        <time>2014-12-13T10:18:46Z</time>
      </trkpt>
      <trkpt lat="44.23339" lon="0.68149">
        <ele>62.622924804688</ele>
        <time>2014-12-13T10:19:06Z</time>
      </trkpt>
      <trkpt lat="44.23321" lon="0.6817">
        <ele>63.103637695312</ele>
        <time>2014-12-13T10:19:30Z</time>
      </trkpt>
      <trkpt lat="44.23322" lon="0.68172">
        <ele>63.103637695312</ele>
        <time>2014-12-13T10:19:33Z</time>
      </trkpt>
      <trkpt lat="44.23314" lon="0.68189">
        <ele>63.103637695312</ele>
        <time>2014-12-13T10:19:52Z</time>
      </trkpt>
      <trkpt lat="44.23307" lon="0.68196">
        <ele>61.181030273438</ele>
        <time>2014-12-13T10:20:09Z</time>
      </trkpt>
      <trkpt lat="44.23292" lon="0.68208">
        <ele>60.700317382812</ele>
        <time>2014-12-13T10:20:27Z</time>
      </trkpt>
      <trkpt lat="44.2328" lon="0.68234">
        <ele>60.2197265625</ele>
        <time>2014-12-13T10:20:48Z</time>
      </trkpt>
      <trkpt lat="44.23276" lon="0.68245">
        <ele>59.739135742188</ele>
        <time>2014-12-13T10:20:55Z</time>
      </trkpt>
      <trkpt lat="44.23275" lon="0.68255">
        <ele>59.258422851562</ele>
        <time>2014-12-13T10:21:02Z</time>
      </trkpt>
      <trkpt lat="44.23275" lon="0.68256">
        <ele>58.777709960938</ele>
        <time>2014-12-13T10:21:05Z</time>
      </trkpt>
    </trkseg>
  </trk>
</gpx>